Time;durP1;ratioP1;P1;durP2;ratioP2;P2;SDS_P1;SDS_P2;PMS_P1;PMS_P2;Temp;Humidity;BMP_temperature;BMP_pressure;BME280_temperature;BME280_humidity;BME280_pressure;Samples;Min_cycle;Max_cycle;Signal;HPM_P1;HPM_P2
2023/04/11 00:00:57;;;;;;;2.50;1.63;;;;;;;14.53;84.38;99875.44;5032858;28;20182;-71
2023/04/11 00:03:22;;;;;;;2.33;2.13;;;;;;;14.52;85.46;99872.91;5044696;28;20201;-73
2023/04/11 00:05:51;;;;;;;2.00;1.90;;;;;;;14.45;86.80;99864.41;5043353;28;20222;-72
2023/04/11 00:08:16;;;;;;;2.20;2.00;;;;;;;14.39;87.82;99864.63;5032027;28;20201;-72
2023/04/11 00:10:42;;;;;;;1.90;1.80;;;;;;;14.32;88.75;99874.38;5032910;28;20198;-72
2023/04/11 00:13:09;;;;;;;2.50;2.00;;;;;;;14.27;90.58;99864.13;5033163;28;20288;-74
2023/04/11 00:15:35;;;;;;;2.17;1.97;;;;;;;14.20;91.76;99854.78;5044765;28;20713;-74
2023/04/11 00:18:00;;;;;;;1.90;1.70;;;;;;;14.13;92.89;99867.13;5036577;28;20193;-73
2023/04/11 00:20:25;;;;;;;2.20;2.00;;;;;;;14.07;94.52;99888.13;5032958;28;20249;-73
2023/04/11 00:22:52;;;;;;;2.60;2.00;;;;;;;13.99;96.16;99905.72;5038273;28;20727;-72
2023/04/11 00:25:18;;;;;;;2.77;2.00;;;;;;;13.93;96.91;99909.34;5029750;28;20226;-72
2023/04/11 00:27:43;;;;;;;2.27;2.07;;;;;;;13.84;98.57;99896.63;5058325;28;20216;-73
2023/04/11 00:30:09;;;;;;;2.20;2.00;;;;;;;13.77;99.66;99890.72;5048964;28;20285;-74
2023/04/11 00:32:35;;;;;;;2.27;2.07;;;;;;;13.70;100.00;99881.41;5037205;28;20589;-73
2023/04/11 00:35:00;;;;;;;2.47;2.27;;;;;;;13.63;100.00;99883.34;5040449;28;20231;-71
2023/04/11 00:37:26;;;;;;;2.57;2.17;;;;;;;13.55;100.00;99886.16;5042711;28;20221;-72
2023/04/11 00:39:54;;;;;;;2.80;2.47;;;;;;;13.47;100.00;99884.66;5033802;28;20662;-73
2023/04/11 00:42:19;;;;;;;2.63;2.43;;;;;;;13.39;100.00;99895.22;5029223;28;20194;-73
2023/04/11 00:44:45;;;;;;;2.60;2.40;;;;;;;13.34;100.00;99897.09;5034262;28;20220;-72
2023/04/11 00:47:11;;;;;;;2.30;2.10;;;;;;;13.31;100.00;99884.19;5040447;28;20194;-73
2023/04/11 00:49:36;;;;;;;3.20;2.90;;;;;;;13.26;100.00;99894.69;5030839;28;20204;-72
2023/04/11 00:52:03;;;;;;;2.97;2.60;;;;;;;13.18;100.00;99928.66;5026514;28;20673;-73
2023/04/11 00:54:29;;;;;;;2.73;2.53;;;;;;;13.11;100.00;99953.09;5031575;28;20237;-73
2023/04/11 00:57:00;;;;;;;2.77;2.37;;;;;;;13.07;100.00;99951.47;5038139;28;20242;-73
2023/04/11 00:59:30;;;;;;;2.80;2.40;;;;;;;13.04;100.00;99960.19;5040408;28;20190;-73
2023/04/11 01:01:57;;;;;;;2.50;2.30;;;;;;;13.01;100.00;99962.88;5036592;28;20210;-72
2023/04/11 01:04:23;;;;;;;2.97;2.63;;;;;;;13.04;100.00;99974.91;5037477;28;20223;-72
2023/04/11 01:06:51;;;;;;;2.20;2.00;;;;;;;12.99;100.00;99969.84;5032224;28;20193;-72
2023/04/11 01:09:23;;;;;;;1.70;1.60;;;;;;;12.80;100.00;99985.84;5038596;28;20266;-73
2023/04/11 01:11:49;;;;;;;2.00;1.20;;;;;;;12.59;100.00;100018.34;5043531;28;20645;-73
2023/04/11 01:14:19;;;;;;;2.23;1.00;;;;;;;12.49;100.00;100002.09;5039845;28;20210;-71
2023/04/11 01:16:49;;;;;;;1.67;1.00;;;;;;;12.28;100.00;99995.63;5025424;28;20198;-74
2023/04/11 01:19:18;;;;;;;1.27;0.80;;;;;;;12.09;100.00;100018.50;5031447;28;20183;-73
2023/04/11 01:21:44;;;;;;;1.17;0.80;;;;;;;11.99;100.00;99998.84;5030154;28;20224;-71
2023/04/11 01:24:10;;;;;;;1.30;0.80;;;;;;;11.92;100.00;99964.34;5031035;28;20269;-72
2023/04/11 01:26:36;;;;;;;0.97;0.67;;;;;;;11.85;100.00;99965.34;5036508;28;20191;-72
2023/04/11 01:29:01;;;;;;;1.27;0.97;;;;;;;11.79;100.00;99962.88;5031425;28;20189;-73
2023/04/11 01:31:26;;;;;;;1.60;0.80;;;;;;;11.77;100.00;99959.47;5056513;28;20191;-74
2023/04/11 01:33:52;;;;;;;1.23;0.80;;;;;;;11.77;100.00;99967.25;5038211;28;20296;-72
2023/04/11 01:36:17;;;;;;;1.23;0.80;;;;;;;11.76;100.00;99965.53;5036399;28;20275;-72
2023/04/11 01:38:43;;;;;;;1.20;0.53;;;;;;;11.73;100.00;99967.28;5031928;28;20203;-73
2023/04/11 01:41:09;;;;;;;0.70;0.70;;;;;;;11.71;100.00;99978.59;5036312;28;20254;-72
2023/04/11 01:43:35;;;;;;;1.63;0.80;;;;;;;11.73;100.00;99963.81;5044068;28;20301;-73
2023/04/11 01:46:00;;;;;;;1.40;0.60;;;;;;;11.74;100.00;99963.81;5040903;28;20702;-72
2023/04/11 01:48:26;;;;;;;1.07;0.73;;;;;;;11.77;100.00;99972.44;5030855;28;20286;-72
2023/04/11 01:50:54;;;;;;;1.50;0.83;;;;;;;11.79;100.00;99986.22;5033248;28;20257;-72
2023/04/11 01:53:19;;;;;;;1.43;1.10;;;;;;;11.79;100.00;99984.47;5031766;28;20299;-73
2023/04/11 01:55:45;;;;;;;1.07;0.83;;;;;;;11.80;100.00;100003.50;5041937;28;20373;-72
2023/04/11 01:58:10;;;;;;;1.57;1.00;;;;;;;11.77;100.00;100003.53;5035572;28;20291;-72
2023/04/11 02:00:35;;;;;;;2.27;1.13;;;;;;;11.73;100.00;99989.75;5028218;28;20185;-73
2023/04/11 02:03:01;;;;;;;1.23;0.70;;;;;;;11.70;100.00;99988.09;5034791;28;20197;-72
2023/04/11 02:05:27;;;;;;;2.47;1.00;;;;;;;11.70;100.00;99997.63;5041020;28;20273;-72
2023/04/11 02:07:52;;;;;;;1.77;1.13;;;;;;;11.69;100.00;99993.31;5039612;28;20188;-73
2023/04/11 02:10:18;;;;;;;2.17;1.10;;;;;;;11.67;100.00;99984.69;5028414;28;20191;-73
2023/04/11 02:12:43;;;;;;;1.47;1.20;;;;;;;11.63;100.00;99994.28;5033721;28;20280;-74
2023/04/11 02:15:09;;;;;;;1.27;1.07;;;;;;;11.60;100.00;99986.56;5031817;28;20211;-72
2023/04/11 02:17:35;;;;;;;3.13;1.27;;;;;;;11.58;100.00;99975.34;5040421;28;20281;-72
2023/04/11 02:20:01;;;;;;;1.47;0.90;;;;;;;11.57;100.00;99984.00;5035434;28;20181;-72
2023/04/11 02:22:26;;;;;;;1.70;0.90;;;;;;;11.55;100.00;99988.34;5033264;28;20188;-72
2023/04/11 02:24:52;;;;;;;1.43;0.80;;;;;;;11.52;100.00;99988.41;5033976;28;20211;-73
2023/04/11 02:27:17;;;;;;;2.97;1.20;;;;;;;11.48;100.00;99984.19;5030206;28;20210;-72
2023/04/11 02:29:42;;;;;;;1.83;0.93;;;;;;;11.46;100.00;99973.00;5043151;28;20196;-73
2023/04/11 02:32:08;;;;;;;1.13;0.87;;;;;;;11.41;100.00;99970.47;5036884;28;20622;-72
2023/04/11 02:34:33;;;;;;;1.83;1.13;;;;;;;11.36;100.00;99973.13;5037884;28;20326;-72
2023/04/11 02:36:58;;;;;;;2.07;1.03;;;;;;;11.33;100.00;99968.03;5033941;28;20222;-73
2023/04/11 02:39:24;;;;;;;2.77;1.00;;;;;;;11.28;100.00;99970.66;5038896;28;20229;-72
2023/04/11 02:41:50;;;;;;;2.10;0.90;;;;;;;11.24;100.00;99973.34;5049499;28;20184;-71
2023/04/11 02:44:15;;;;;;;1.97;1.07;;;;;;;11.25;100.00;99977.66;5028017;28;20650;-72
2023/04/11 02:46:41;;;;;;;1.97;1.00;;;;;;;11.23;100.00;99987.16;5037629;28;20666;-73
2023/04/11 02:49:06;;;;;;;1.23;0.83;;;;;;;11.25;100.00;99988.88;5031113;28;20684;-72
2023/04/11 02:51:32;;;;;;;2.57;1.30;;;;;;;11.25;100.00;99980.22;5034601;28;20190;-72
2023/04/11 02:53:57;;;;;;;1.83;0.90;;;;;;;11.20;100.00;99971.69;5037491;28;20209;-72
2023/04/11 02:56:23;;;;;;;2.37;0.80;;;;;;;11.20;100.00;99995.00;5036567;28;20201;-73
2023/04/11 02:58:48;;;;;;;1.70;0.90;;;;;;;11.21;100.00;100017.41;5036792;28;20201;-72
2023/04/11 03:01:15;;;;;;;2.27;1.17;;;;;;;11.20;100.00;100010.53;5033825;28;20203;-72
2023/04/11 03:03:41;;;;;;;2.47;1.10;;;;;;;11.20;100.00;100015.72;5038522;28;20269;-73
2023/04/11 03:06:07;;;;;;;2.33;0.90;;;;;;;11.20;100.00;100001.03;5034562;28;20313;-72
2023/04/11 03:08:34;;;;;;;3.07;0.80;;;;;;;11.23;100.00;100019.13;5043784;28;20202;-72
2023/04/11 03:11:00;;;;;;;1.83;0.93;;;;;;;11.24;100.00;100014.78;5033240;28;20198;-73
2023/04/11 03:13:25;;;;;;;2.27;1.07;;;;;;;11.26;100.00;100031.16;5037748;28;20662;-73
2023/04/11 03:15:50;;;;;;;1.53;0.83;;;;;;;11.28;100.00;100032.84;5041058;28;20329;-72
2023/04/11 03:18:16;;;;;;;3.07;1.10;;;;;;;11.29;100.00;100039.72;5062255;28;20281;-73
2023/04/11 03:20:42;;;;;;;2.40;1.10;;;;;;;11.27;100.00;100051.84;5046065;28;20189;-72
2023/04/11 03:23:07;;;;;;;2.00;1.17;;;;;;;11.25;100.00;100045.00;5030844;28;20252;-72
2023/04/11 03:25:33;;;;;;;1.23;0.97;;;;;;;11.20;100.00;100047.66;5032725;28;20235;-72
2023/04/11 03:27:58;;;;;;;3.47;1.03;;;;;;;11.17;100.00;100050.28;5043392;28;20269;-72
2023/04/11 03:30:23;;;;;;;1.73;1.00;;;;;;;11.13;100.00;100044.31;5041616;28;21103;-72
2023/04/11 03:32:49;;;;;;;2.47;1.23;;;;;;;11.11;100.00;100047.81;5041428;28;20188;-72
2023/04/11 03:35:14;;;;;;;4.03;1.40;;;;;;;11.07;100.00;100053.91;5027582;28;20196;-73
2023/04/11 03:37:39;;;;;;;1.80;1.10;;;;;;;11.02;100.00;100047.94;5039637;28;20274;-73
2023/04/11 03:40:07;;;;;;;3.60;1.53;;;;;;;10.97;100.00;100043.66;5034921;28;20329;-72
2023/04/11 03:42:34;;;;;;;2.90;1.53;;;;;;;10.94;100.00;100048.03;5046594;28;20202;-73
2023/04/11 03:44:59;;;;;;;3.93;1.20;;;;;;;10.94;100.00;100054.09;5049218;28;20210;-73
2023/04/11 03:47:24;;;;;;;2.77;1.63;;;;;;;10.93;100.00;100054.97;5037270;28;20210;-73
2023/04/11 03:49:50;;;;;;;3.30;1.83;;;;;;;10.93;100.00;100052.38;5045987;28;20185;-72
2023/04/11 03:52:16;;;;;;;2.90;1.50;;;;;;;10.89;100.00;100058.47;5036953;28;20293;-72
2023/04/11 03:54:41;;;;;;;3.87;1.47;;;;;;;10.88;100.00;100048.16;5033131;28;20597;-72
2023/04/11 03:57:07;;;;;;;2.90;1.60;;;;;;;10.88;100.00;100050.75;5032719;28;20175;-72
2023/04/11 03:59:33;;;;;;;2.53;1.20;;;;;;;10.87;100.00;100039.50;5034235;28;20186;-73
2023/04/11 04:01:58;;;;;;;2.03;1.33;;;;;;;10.86;100.00;100045.56;5035347;28;20195;-72
2023/04/11 04:04:23;;;;;;;1.90;1.40;;;;;;;10.86;100.00;100053.31;5039278;28;20238;-72
2023/04/11 04:06:49;;;;;;;2.13;1.33;;;;;;;10.88;100.00;100056.75;5034660;28;20183;-72
2023/04/11 04:09:14;;;;;;;1.67;1.30;;;;;;;10.87;100.00;100054.19;5039726;28;20592;-72
2023/04/11 04:11:39;;;;;;;2.93;1.23;;;;;;;10.87;100.00;100069.72;5040011;28;20565;-74
2023/04/11 04:14:05;;;;;;;1.83;1.33;;;;;;;10.86;100.00;100080.97;5037547;28;20199;-73
2023/04/11 04:16:30;;;;;;;1.27;0.80;;;;;;;10.82;100.00;100078.41;5049208;28;20184;-72
2023/04/11 04:18:55;;;;;;;2.03;1.10;;;;;;;10.78;100.00;100075.88;5036517;28;20679;-73
2023/04/11 04:21:21;;;;;;;1.03;0.63;;;;;;;10.76;100.00;100073.31;5033001;28;20229;-71
2023/04/11 04:23:46;;;;;;;1.27;0.70;;;;;;;10.74;100.00;100079.38;5039763;28;20206;-73
2023/04/11 04:26:15;;;;;;;1.20;0.90;;;;;;;10.71;100.00;100076.81;5041893;28;20226;-73
2023/04/11 04:28:44;;;;;;;1.90;1.23;;;;;;;10.69;100.00;100079.44;5052133;28;20190;-72
2023/04/11 04:31:10;;;;;;;1.53;0.87;;;;;;;10.67;100.00;100068.25;5030095;28;20188;-72
2023/04/11 04:33:36;;;;;;;1.87;0.90;;;;;;;10.63;100.00;100051.91;5039286;28;20182;-72
2023/04/11 04:36:03;;;;;;;1.67;1.13;;;;;;;10.59;100.00;100060.59;5049402;28;20186;-72
2023/04/11 04:38:29;;;;;;;1.67;1.20;;;;;;;10.54;100.00;100069.28;5063276;28;20552;-72
2023/04/11 04:40:55;;;;;;;1.10;1.00;;;;;;;10.51;100.00;100083.97;5044335;28;20193;-73
2023/04/11 04:43:22;;;;;;;2.60;0.90;;;;;;;10.47;100.00;100092.63;5043789;28;20172;-72
2023/04/11 04:45:48;;;;;;;1.50;1.10;;;;;;;10.44;100.00;100107.34;5036745;28;20267;-72
2023/04/11 04:48:13;;;;;;;2.67;1.13;;;;;;;10.44;100.00;100104.75;5040935;28;20182;-72
2023/04/11 04:50:39;;;;;;;1.90;1.07;;;;;;;10.40;100.00;100111.72;5031639;28;20310;-72
2023/04/11 04:53:05;;;;;;;1.93;1.00;;;;;;;10.39;100.00;100124.63;5033147;28;20203;-73
2023/04/11 04:55:30;;;;;;;2.00;0.90;;;;;;;10.36;100.00;100123.75;5039999;28;20219;-72
2023/04/11 04:57:56;;;;;;;1.80;1.03;;;;;;;10.34;100.00;100127.25;5035538;28;20199;-72
2023/04/11 05:00:21;;;;;;;3.03;1.37;;;;;;;10.32;100.00;100127.28;5033581;28;20929;-72
2023/04/11 05:02:46;;;;;;;1.30;0.90;;;;;;;10.30;100.00;100136.78;5038071;28;20195;-72
2023/04/11 05:05:12;;;;;;;1.83;1.40;;;;;;;10.31;100.00;100147.97;5037726;28;20583;-72
2023/04/11 05:07:38;;;;;;;1.10;0.90;;;;;;;10.28;100.00;100142.84;5038673;28;20248;-72
2023/04/11 05:10:04;;;;;;;3.07;1.10;;;;;;;10.30;100.00;100143.66;5052284;28;20179;-72
2023/04/11 05:12:30;;;;;;;2.10;1.03;;;;;;;10.25;100.00;100137.69;5033914;28;20668;-73
2023/04/11 05:14:55;;;;;;;3.33;0.73;;;;;;;10.18;100.00;100149.84;5041111;28;20295;-71
2023/04/11 05:17:22;;;;;;;1.63;1.03;;;;;;;10.13;100.00;100155.06;5055871;28;20664;-73
2023/04/11 05:19:47;;;;;;;2.03;0.90;;;;;;;10.11;100.00;100161.09;5042200;28;20191;-72
2023/04/11 05:22:13;;;;;;;1.53;1.10;;;;;;;10.06;100.00;100167.16;5036496;28;20197;-73
2023/04/11 05:24:38;;;;;;;1.67;0.70;;;;;;;10.05;100.00;100164.59;5055083;28;20227;-72
2023/04/11 05:27:03;;;;;;;2.27;1.00;;;;;;;10.02;100.00;100165.50;5036802;28;20286;-72
2023/04/11 05:29:29;;;;;;;2.47;0.90;;;;;;;10.03;100.00;100168.91;5036486;28;20660;-72
2023/04/11 05:31:54;;;;;;;1.83;1.10;;;;;;;9.98;100.00;100163.78;5026686;28;20556;-73
2023/04/11 05:34:19;;;;;;;2.10;1.07;;;;;;;9.98;100.00;100165.53;5037457;28;20296;-73
2023/04/11 05:36:46;;;;;;;1.17;0.90;;;;;;;10.01;100.00;100171.53;5038358;28;20261;-72
2023/04/11 05:39:11;;;;;;;3.23;1.10;;;;;;;10.03;100.00;100171.50;5029001;28;20231;-73
2023/04/11 05:41:37;;;;;;;1.57;1.20;;;;;;;10.02;100.00;100174.97;5043748;28;20269;-71
2023/04/11 05:44:02;;;;;;;2.43;1.40;;;;;;;10.01;100.00;100179.28;5046420;28;20201;-73
2023/04/11 05:46:28;;;;;;;2.00;1.03;;;;;;;9.99;100.00;100193.06;5033183;28;20223;-73
2023/04/11 05:48:53;;;;;;;1.87;0.80;;;;;;;9.97;100.00;100198.28;5029444;28;20266;-71
2023/04/11 05:51:19;;;;;;;1.60;1.00;;;;;;;10.05;100.00;100191.31;5033333;28;20238;-72
2023/04/11 05:53:44;;;;;;;1.27;0.90;;;;;;;10.09;100.00;100188.69;5034080;28;20202;-72
2023/04/11 05:56:11;;;;;;;1.90;0.90;;;;;;;10.12;100.00;100193.84;5035071;28;20214;-74
2023/04/11 05:58:37;;;;;;;1.20;0.97;;;;;;;10.15;100.00;100199.00;5029960;28;20194;-72
2023/04/11 06:01:02;;;;;;;26.27;17.43;;;;;;;10.20;100.00;100200.66;5031845;28;20222;-73
2023/04/11 06:03:27;;;;;;;9.83;7.77;;;;;;;10.29;100.00;100216.97;5027350;28;20609;-71
2023/04/11 06:05:53;;;;;;;4.93;3.27;;;;;;;10.33;100.00;100221.25;5034105;28;20211;-73
2023/04/11 06:08:18;;;;;;;4.73;3.10;;;;;;;10.35;100.00;100229.84;5044710;28;20315;-74
2023/04/11 06:10:43;;;;;;;7.43;5.60;;;;;;;10.39;100.00;100238.47;5046470;28;20752;-73
2023/04/11 06:13:09;;;;;;;4.37;3.30;;;;;;;10.40;100.00;100230.72;5025269;28;20242;-72
2023/04/11 06:15:34;;;;;;;3.20;2.20;;;;;;;10.41;100.00;100237.59;5033397;28;20303;-72
2023/04/11 06:18:00;;;;;;;3.90;2.57;;;;;;;10.45;100.00;100233.25;5033021;28;20180;-73
2023/04/11 06:20:25;;;;;;;5.03;3.20;;;;;;;10.54;100.00;100232.31;5039367;28;20979;-71
2023/04/11 06:22:50;;;;;;;7.20;4.53;;;;;;;10.59;100.00;100228.78;5041950;28;20189;-73
2023/04/11 06:25:17;;;;;;;6.27;2.03;;;;;;;10.70;100.00;100233.00;5028923;28;20219;-72
2023/04/11 06:27:43;;;;;;;5.70;3.80;;;;;;;10.79;100.00;100226.00;5029213;28;20274;-73
2023/04/11 06:30:09;;;;;;;3.33;2.33;;;;;;;10.91;100.00;100242.25;5026338;28;20275;-72
2023/04/11 06:32:34;;;;;;;2.50;1.40;;;;;;;10.97;100.00;100240.47;5044086;28;20191;-71
2023/04/11 06:35:00;;;;;;;2.40;1.10;;;;;;;11.00;100.00;100242.19;5027749;28;20290;-73
2023/04/11 06:37:26;;;;;;;2.13;1.27;;;;;;;11.01;100.00;100236.13;5026413;28;20191;-71
2023/04/11 06:39:51;;;;;;;4.17;1.20;;;;;;;10.98;100.00;100254.28;5034080;28;20197;-71
2023/04/11 06:42:16;;;;;;;2.17;1.30;;;;;;;10.91;100.00;100250.91;5030242;28;20261;-71
2023/04/11 06:44:41;;;;;;;3.10;1.33;;;;;;;10.85;100.00;100252.69;5042988;28;20302;-72
2023/04/11 06:47:07;;;;;;;2.33;1.13;;;;;;;10.81;100.00;100259.66;5026224;28;20219;-72
2023/04/11 06:49:32;;;;;;;2.50;1.47;;;;;;;10.84;100.00;100259.59;5033656;28;20184;-72
2023/04/11 06:51:58;;;;;;;4.13;1.50;;;;;;;10.98;100.00;100254.28;5030055;28;20190;-73
2023/04/11 06:54:23;;;;;;;3.57;1.30;;;;;;;11.21;100.00;100251.41;5043418;28;20209;-73
2023/04/11 06:56:52;;;;;;;2.13;1.30;;;;;;;11.41;100.00;100271.06;5038462;28;20269;-72
2023/04/11 06:59:19;;;;;;;4.00;1.30;;;;;;;11.66;100.00;100275.91;5033365;28;20204;-72
2023/04/11 07:01:44;;;;;;;1.90;1.07;;;;;;;12.09;100.00;100270.13;5040132;28;21031;-72
2023/04/11 07:04:10;;;;;;;3.03;1.30;;;;;;;12.48;100.00;100279.88;5038276;28;20222;-73
2023/04/11 07:06:35;;;;;;;3.00;1.43;;;;;;;12.82;100.00;100281.88;5042484;28;20186;-71
2023/04/11 07:09:04;;;;;;;3.03;1.57;;;;;;;13.15;100.00;100284.72;5043742;28;20269;-72
2023/04/11 07:11:31;;;;;;;1.20;1.00;;;;;;;13.23;100.00;100290.63;5027892;28;20188;-72
2023/04/11 07:13:58;;;;;;;2.23;1.33;;;;;;;13.47;98.96;100287.59;5043010;28;20217;-72
2023/04/11 07:16:24;;;;;;;2.07;1.20;;;;;;;13.67;97.76;100285.44;5029960;28;20207;-72
2023/04/11 07:18:49;;;;;;;1.80;1.37;;;;;;;13.65;97.51;100286.31;5048539;28;20185;-74
2023/04/11 07:21:15;;;;;;;1.73;1.37;;;;;;;13.68;97.34;100287.13;5047458;28;20568;-72
2023/04/11 07:23:41;;;;;;;2.60;1.57;;;;;;;14.00;96.57;100293.34;5034519;28;20295;-73
2023/04/11 07:26:09;;;;;;;2.10;1.33;;;;;;;14.40;94.53;100290.69;5046146;28;20234;-72
2023/04/11 07:28:39;;;;;;;2.97;1.47;;;;;;;14.80;93.49;100281.03;5044917;28;20186;-73
2023/04/11 07:31:08;;;;;;;3.27;1.70;;;;;;;15.20;91.11;100285.13;5056676;28;20652;-73
2023/04/11 07:33:35;;;;;;;3.20;1.87;;;;;;;15.41;89.49;100286.28;5050633;28;20502;-72
2023/04/11 07:36:01;;;;;;;2.97;1.87;;;;;;;15.54;87.92;100287.63;5037356;28;20755;-73
2023/04/11 07:38:28;;;;;;;3.63;1.87;;;;;;;15.56;88.36;100290.19;5038856;28;20191;-72
2023/04/11 07:40:55;;;;;;;3.17;1.60;;;;;;;15.54;88.58;100290.22;5052914;28;20194;-73
2023/04/11 07:43:20;;;;;;;2.53;1.33;;;;;;;15.52;88.18;100278.97;5042235;28;20612;-72
2023/04/11 07:45:45;;;;;;;2.20;1.30;;;;;;;15.62;87.36;100294.38;5046308;28;20251;-72
2023/04/11 07:48:11;;;;;;;2.03;1.20;;;;;;;15.72;87.45;100305.41;5035127;28;20187;-75
2023/04/11 07:50:36;;;;;;;3.43;1.63;;;;;;;15.79;86.58;100297.34;5037562;28;20186;-73
2023/04/11 07:53:02;;;;;;;3.20;1.37;;;;;;;15.76;86.32;100293.94;5038165;28;20210;-72
2023/04/11 07:55:27;;;;;;;3.70;1.67;;;;;;;15.77;85.87;100290.44;5041570;28;20298;-73
2023/04/11 07:57:53;;;;;;;2.57;1.53;;;;;;;15.83;85.66;100305.91;5038911;28;20182;-72
2023/04/11 08:00:20;;;;;;;2.67;1.50;;;;;;;15.91;84.42;100290.91;5042016;28;20678;-72
2023/04/11 08:02:46;;;;;;;2.67;1.40;;;;;;;16.03;83.66;100292.28;5042860;28;20188;-73
2023/04/11 08:05:11;;;;;;;3.23;1.70;;;;;;;16.22;82.52;100289.09;5028427;28;20272;-73
2023/04/11 08:07:36;;;;;;;2.80;1.80;;;;;;;16.33;81.81;100286.97;5046004;28;21002;-73
2023/04/11 08:10:02;;;;;;;2.67;1.50;;;;;;;16.37;81.14;100291.19;5044084;28;20194;-73
2023/04/11 08:12:27;;;;;;;4.87;1.67;;;;;;;16.27;79.48;100289.75;5045089;28;20671;-72
2023/04/11 08:14:53;;;;;;;3.33;1.50;;;;;;;16.17;78.96;100290.97;5035418;28;20430;-72
2023/04/11 08:17:18;;;;;;;2.77;1.40;;;;;;;16.09;78.08;100299.94;5038266;28;20183;-72
2023/04/11 08:19:43;;;;;;;2.57;1.50;;;;;;;16.09;77.79;100299.06;5036547;28;20192;-72
2023/04/11 08:22:09;;;;;;;2.60;1.60;;;;;;;16.21;77.35;100288.22;5044519;28;20214;-72
2023/04/11 08:24:34;;;;;;;3.53;1.60;;;;;;;16.31;76.99;100304.44;5049714;28;20296;-75
2023/04/11 08:27:00;;;;;;;2.97;1.63;;;;;;;16.22;76.98;100299.53;5031692;28;20600;-74
2023/04/11 08:29:25;;;;;;;3.63;1.80;;;;;;;16.08;77.04;100302.56;5049200;28;20230;-72
2023/04/11 08:31:51;;;;;;;4.77;2.07;;;;;;;16.06;77.09;100309.59;5030113;28;20241;-73
2023/04/11 08:34:16;;;;;;;3.23;2.27;;;;;;;16.05;76.92;100302.66;5033102;28;20671;-73
2023/04/11 08:36:41;;;;;;;4.23;2.03;;;;;;;16.14;77.04;100300.63;5035886;28;20241;-72
2023/04/11 08:39:07;;;;;;;4.03;2.47;;;;;;;16.21;76.36;100288.22;5037502;28;20283;-72
2023/04/11 08:41:34;;;;;;;3.10;1.80;;;;;;;16.23;75.94;100296.00;5038722;28;20194;-73
2023/04/11 08:43:59;;;;;;;5.47;1.73;;;;;;;16.19;75.60;100300.47;5052618;28;20305;-75
2023/04/11 08:46:25;;;;;;;3.70;1.63;;;;;;;16.12;75.56;100305.03;5037057;28;20301;-72
2023/04/11 08:48:51;;;;;;;2.93;1.57;;;;;;;16.09;75.10;100296.44;5035960;28;21986;-73
2023/04/11 08:51:25;;;;;;;3.37;1.63;;;;;;;16.04;75.34;100301.81;5034698;28;20603;-72
2023/04/11 08:53:52;;;;;;;2.77;1.40;;;;;;;15.94;74.89;100303.84;5066203;28;20206;-72
2023/04/11 08:56:18;;;;;;;3.23;1.17;;;;;;;15.98;75.25;100299.38;5056661;28;20220;-72
2023/04/11 08:58:45;;;;;;;3.67;1.57;;;;;;;16.05;74.90;100297.44;5036504;28;20196;-73
2023/04/11 09:01:35;;;;;;;3.90;1.83;;;;;;;16.02;74.03;100302.78;5030668;28;20234;-72
2023/04/11 09:04:07;;;;;;;3.63;1.67;;;;;;;15.90;73.62;100304.84;5035185;28;20712;-72
2023/04/11 09:06:33;;;;;;;4.70;1.50;;;;;;;15.99;73.67;100311.53;5033740;28;20587;-73
2023/04/11 09:08:59;;;;;;;2.90;1.53;;;;;;;16.07;73.55;100306.06;5039548;28;20185;-73
2023/04/11 09:11:25;;;;;;;4.37;1.60;;;;;;;16.14;73.58;100305.84;5038574;28;20588;-72
2023/04/11 09:14:10;;;;;;;2.70;1.40;;;;;;;16.19;72.48;100304.84;5044230;28;20257;-72
2023/04/11 09:16:36;;;;;;;2.23;1.17;;;;;;;16.20;72.65;100317.84;5051857;28;20191;-74
2023/04/11 09:19:02;;;;;;;3.17;1.70;;;;;;;16.18;72.26;100300.53;5026958;28;20288;-73
2023/04/11 09:21:28;;;;;;;2.70;1.23;;;;;;;16.19;72.08;100305.69;5039098;28;20187;-72
2023/04/11 09:23:54;;;;;;;3.40;1.23;;;;;;;16.27;71.82;100303.69;5033758;28;20695;-73
2023/04/11 09:26:28;;;;;;;2.13;1.00;;;;;;;16.40;71.31;100298.06;5040648;28;20221;-74
2023/04/11 09:28:53;;;;;;;2.30;1.20;;;;;;;16.44;71.77;100299.69;5053482;28;20187;-73
2023/04/11 09:31:38;;;;;;;3.73;1.10;;;;;;;16.45;71.30;100307.44;5043168;28;20622;-72
2023/04/11 09:34:03;;;;;;;1.87;1.20;;;;;;;16.37;70.71;100306.00;5059120;28;20261;-73
2023/04/11 09:36:29;;;;;;;2.50;1.50;;;;;;;16.36;70.82;100304.28;5043654;28;20986;-73
2023/04/11 09:38:54;;;;;;;2.67;1.20;;;;;;;16.38;70.75;100308.56;5041501;28;20209;-75
2023/04/11 09:41:32;;;;;;;2.67;1.10;;;;;;;16.36;70.21;100309.50;5041264;28;20191;-74
2023/04/11 09:43:59;;;;;;;3.27;1.13;;;;;;;16.34;70.38;100308.69;5060273;28;20623;-74
2023/04/11 09:46:24;;;;;;;2.50;1.20;;;;;;;16.36;70.25;100312.13;5046010;28;20206;-74
2023/04/11 09:48:51;;;;;;;5.23;1.63;;;;;;;16.29;70.60;100312.34;5050417;28;20189;-73
2023/04/11 09:51:18;;;;;;;3.53;1.70;;;;;;;16.24;70.60;100311.63;5030476;28;20300;-73
2023/04/11 09:53:44;;;;;;;4.03;1.40;;;;;;;16.23;70.84;100309.06;5040513;28;20191;-72
2023/04/11 09:56:10;;;;;;;2.47;1.40;;;;;;;16.37;70.63;100312.09;5032679;28;20185;-74
2023/04/11 09:58:38;;;;;;;6.20;1.70;;;;;;;16.68;70.84;100312.81;5032259;28;20243;-72
2023/04/11 10:01:09;;;;;;;2.93;1.40;;;;;;;16.98;70.34;100312.69;5037583;28;21446;-72
2023/04/11 10:03:38;;;;;;;4.10;1.50;;;;;;;17.27;69.48;100316.00;5038997;28;20197;-74
2023/04/11 10:06:30;;;;;;;2.93;1.60;;;;;;;17.46;67.22;100324.06;5038297;28;20206;-72
2023/04/11 10:09:05;;;;;;;4.10;1.53;;;;;;;17.45;66.35;100323.19;5031537;28;20352;-72
2023/04/11 10:11:31;;;;;;;2.83;1.30;;;;;;;17.48;66.52;100322.22;5033762;28;20205;-74
2023/04/11 10:13:57;;;;;;;4.27;1.27;;;;;;;17.57;66.23;100319.28;5033081;28;20204;-71
2023/04/11 10:16:24;;;;;;;2.93;1.57;;;;;;;17.70;66.00;100317.03;5043038;28;20193;-72
2023/04/11 10:18:49;;;;;;;4.43;2.47;;;;;;;17.86;64.55;100311.19;5031817;28;20893;-74
2023/04/11 10:21:37;;;;;;;3.80;1.93;;;;;;;17.85;65.07;100310.34;5042907;28;20211;-74
2023/04/11 10:24:08;;;;;;;3.10;1.60;;;;;;;17.94;64.93;100312.59;5033007;28;20232;-73
2023/04/11 10:26:51;;;;;;;3.43;1.57;;;;;;;17.81;65.13;100316.63;5029790;28;20202;-73
2023/04/11 10:29:41;;;;;;;4.43;1.70;;;;;;;17.49;65.04;100311.72;5031858;28;20644;-72
2023/04/11 10:32:21;;;;;;;2.93;1.43;;;;;;;17.26;65.18;100316.91;5026190;28;20195;-72
2023/04/11 10:34:53;;;;;;;4.43;1.57;;;;;;;17.29;65.69;100324.66;5034553;28;20207;-72
2023/04/11 10:37:31;;;;;;;3.37;1.73;;;;;;;17.35;65.48;100314.81;5029827;28;20203;-72
2023/04/11 10:39:59;;;;;;;2.67;1.20;;;;;;;17.54;65.48;100315.94;5035668;28;20192;-72
2023/04/11 10:42:37;;;;;;;3.20;1.30;;;;;;;17.80;65.15;100312.28;5037472;28;20216;-73
2023/04/11 10:45:22;;;;;;;4.43;1.63;;;;;;;17.92;64.56;100321.44;5035387;28;20216;-73
2023/04/11 10:47:50;;;;;;;3.83;1.40;;;;;;;17.86;64.69;100313.81;5031201;28;20525;-72
2023/04/11 10:50:27;;;;;;;2.63;1.53;;;;;;;17.76;64.85;100323.81;5033284;28;20198;-74
2023/04/11 10:52:54;;;;;;;2.47;1.20;;;;;;;17.63;64.78;100320.81;5032173;28;20186;-75
2023/04/11 10:55:20;;;;;;;3.10;1.50;;;;;;;17.52;64.68;100311.59;5036640;28;20275;-74
2023/04/11 10:58:06;;;;;;;2.57;1.27;;;;;;;17.44;65.13;100313.63;5033627;28;20185;-74
2023/04/11 11:00:50;;;;;;;2.87;1.37;;;;;;;17.57;65.30;100321.88;5034695;28;20252;-75
2023/04/11 11:03:20;;;;;;;3.87;1.33;;;;;;;17.68;64.99;100314.47;5033425;28;20209;-74
2023/04/11 11:05:46;;;;;;;2.90;1.50;;;;;;;17.75;64.62;100319.50;5026181;28;20301;-75
2023/04/11 11:08:11;;;;;;;2.87;1.70;;;;;;;17.63;64.31;100308.56;5040901;28;20311;-77
2023/04/11 11:10:42;;;;;;;3.77;1.60;;;;;;;17.65;64.64;100311.13;5038616;28;20325;-73
2023/04/11 11:13:08;;;;;;;4.83;2.07;;;;;;;17.68;64.54;100308.41;5036639;28;20203;-72
2023/04/11 11:15:36;;;;;;;3.37;1.73;;;;;;;17.64;64.66;100306.81;5040945;28;20205;-71
2023/04/11 11:18:08;;;;;;;2.47;1.67;;;;;;;17.60;64.52;100313.94;5030661;28;20212;-71
2023/04/11 11:20:34;;;;;;;3.80;1.63;;;;;;;17.44;64.44;100310.19;5049747;28;20185;-72